Aviation Digital Data Service (ADDS)

Output produced by METARs form (0553 UTC 14 February 2016)
found at http://aviationweather.gov/adds/metars/
 
KHUL 132338Z 1400/1424 34008KT 3SM -SHSN OVC035 
     TEMPO 1400/1402 1 1/2SM -SN BR OVC025 
     FM140200 36008G16KT P6SM VCSH OVC035 
     FM140800 34012G22KT P6SM BKN040 
     FM141500 28012G22KT P6SM SCT040